createdAt,value
2022-12-08T00:01:39.710Z,98677.19
2022-12-08T00:04:06.825Z,98671.78
2022-12-08T00:06:54.027Z,98667.47
2022-12-08T00:09:26.590Z,98662.53
2022-12-08T00:11:56.491Z,98663.59
2022-12-08T00:14:26.506Z,98664.41
2022-12-08T00:16:54.645Z,98671.44
2022-12-08T00:19:22.217Z,98660.69
2022-12-08T00:21:49.205Z,98652.84
2022-12-08T00:24:16.100Z,98644.75
2022-12-08T00:26:44.403Z,98642.28
2022-12-08T00:29:17.009Z,98638.78
2022-12-08T00:31:44.423Z,98630.94
2022-12-08T00:34:12.191Z,98630.94
2022-12-08T00:36:39.043Z,98628.50
2022-12-08T00:39:06.277Z,98628.22
2022-12-08T00:41:51.731Z,98623.69
2022-12-08T00:44:19.986Z,98619.81
2022-12-08T00:46:47.673Z,98620.66
2022-12-08T00:49:15.611Z,98619.81
2022-12-08T00:51:42.900Z,98620.66
2022-12-08T00:54:10.675Z,98622.50
2022-12-08T00:56:38.359Z,98627.06
2022-12-08T00:59:06.977Z,98618.19
2022-12-08T01:01:36.089Z,98617.34
2022-12-08T01:04:04.584Z,98628.97
2022-12-08T01:06:31.657Z,98622.97
2022-12-08T01:08:58.688Z,98628.34
2022-12-08T01:11:25.625Z,98623.19
2022-12-08T01:13:53.803Z,98624.03
2022-12-08T01:16:21.947Z,98617.81
2022-12-08T01:18:50.359Z,98622.97
2022-12-08T01:21:17.647Z,98625.09
2022-12-08T01:23:44.564Z,98623.19
2022-12-08T01:26:13.632Z,98620.78
2022-12-08T01:28:41.216Z,98620.78
2022-12-08T01:31:12.513Z,98619.94
2022-12-08T01:33:39.297Z,98612.69
2022-12-08T01:36:09.045Z,98606.16
2022-12-08T01:38:35.972Z,98605.53
2022-12-08T01:41:02.852Z,98599.34
2022-12-08T01:43:57.625Z,98604.72
2022-12-08T01:46:25.238Z,98591.53
2022-12-08T01:48:56.614Z,98593.16
2022-12-08T01:51:25.418Z,98593.94
2022-12-08T01:53:52.496Z,98594.44
2022-12-08T01:56:25.608Z,98584.72
2022-12-08T01:58:54.427Z,98584.72
2022-12-08T02:01:21.775Z,98577.47
2022-12-08T02:03:55.678Z,98584.09
2022-12-08T02:06:24.225Z,98579.31
2022-12-08T02:08:52.088Z,98589.06
2022-12-08T02:11:19.007Z,98594.44
2022-12-08T02:13:47.545Z,98592.78
2022-12-08T02:16:28.007Z,98593.38
2022-12-08T02:19:30.289Z,98585.53
2022-12-08T02:22:04.600Z,98585.53
2022-12-08T02:24:38.560Z,98584.09
2022-12-08T02:27:25.258Z,98576.25
2022-12-08T02:30:07.573Z,98576.88
2022-12-08T02:33:19.727Z,98576.88
2022-12-08T02:35:56.552Z,98575.44
2022-12-08T02:38:32.922Z,98576.25
2022-12-08T02:41:07.657Z,98571.72
2022-12-08T02:43:42.008Z,98572.50
2022-12-08T02:46:13.292Z,98572.75
2022-12-08T02:48:40.371Z,98558.47
2022-12-08T02:51:08.721Z,98557.66
2022-12-08T02:53:36.984Z,98550.41
2022-12-08T02:56:15.038Z,98549.00
2022-12-08T02:59:04.305Z,98555.44
2022-12-08T03:01:59.091Z,98542.22
2022-12-08T03:04:33.619Z,98549.47
2022-12-08T03:07:07.280Z,98541.41
2022-12-08T03:09:39.828Z,98532.88
2022-12-08T03:12:16.129Z,98530.41
2022-12-08T03:14:48.432Z,98540.34
2022-12-08T03:17:18.152Z,98535.78
2022-12-08T03:19:48.204Z,98532.50
2022-12-08T03:22:19.825Z,98515.31
2022-12-08T03:24:47.113Z,98510.41
2022-12-08T03:27:20.573Z,98510.16
2022-12-08T03:29:49.353Z,98511.78
2022-12-08T03:32:22.669Z,98515.53
2022-12-08T03:34:51.571Z,98510.16
2022-12-08T03:37:20.898Z,98505.81
2022-12-08T03:39:47.909Z,98506.88
2022-12-08T03:42:14.782Z,98505.03
2022-12-08T03:44:41.684Z,98499.88
2022-12-08T03:47:08.538Z,98495.31
2022-12-08T03:49:35.441Z,98494.47
2022-12-08T03:52:02.347Z,98488.03
2022-12-08T03:54:30.723Z,98489.94
2022-12-08T03:56:57.569Z,98487.47
2022-12-08T03:59:24.663Z,98487.47
2022-12-08T04:01:51.606Z,98481.03
2022-12-08T04:04:19.043Z,98487.47
2022-12-08T04:06:46.069Z,98477.75
2022-12-08T04:09:13.188Z,98478.81
2022-12-08T04:11:41.679Z,98473.41
2022-12-08T04:14:08.521Z,98479.41
2022-12-08T04:16:35.689Z,98473.19
2022-12-08T04:19:02.689Z,98465.94
2022-12-08T04:21:29.632Z,98471.56
2022-12-08T04:24:00.986Z,98475.06
2022-12-08T04:26:28.544Z,98466.19
2022-12-08T04:28:56.828Z,98463.13
2022-12-08T04:31:23.746Z,98455.06
2022-12-08T04:33:50.696Z,98451.56
2022-12-08T04:36:17.581Z,98454.03
2022-12-08T04:38:44.426Z,98454.81
2022-12-08T04:41:11.503Z,98451.56
2022-12-08T04:43:38.451Z,98456.13
2022-12-08T04:46:08.806Z,98458.56
2022-12-08T04:48:37.993Z,98450.50
2022-12-08T04:51:05.375Z,98453.19
2022-12-08T04:53:32.628Z,98448.88
2022-12-08T04:55:59.479Z,98449.66
2022-12-08T04:58:26.353Z,98450.50
2022-12-08T05:00:53.342Z,98458.00
2022-12-08T05:03:28.348Z,98459.88
2022-12-08T05:05:55.924Z,98452.63
2022-12-08T05:08:22.890Z,98461.50
2022-12-08T05:10:49.790Z,98455.31
2022-12-08T05:13:16.668Z,98453.66
2022-12-08T05:15:43.667Z,98456.13
2022-12-08T05:18:10.587Z,98445.59
2022-12-08T05:20:38.855Z,98450.16
2022-12-08T05:23:05.805Z,98456.63
2022-12-08T05:25:32.652Z,98457.41
2022-12-08T05:28:32.317Z,98458.25
2022-12-08T05:30:46.674Z,98453.91
2022-12-08T05:33:13.632Z,98446.88
2022-12-08T05:35:41.898Z,98448.78
2022-12-08T05:38:09.509Z,98447.94
2022-12-08T05:40:38.097Z,98449.00
2022-12-08T05:43:05.015Z,98445.25
2022-12-08T05:45:32.050Z,98436.34
2022-12-08T05:47:59.298Z,98433.44
2022-12-08T05:50:26.178Z,98427.91
2022-12-08T05:52:56.660Z,98422.06
2022-12-08T05:55:23.589Z,98431.53
2022-12-08T05:57:50.448Z,98427.91
2022-12-08T06:00:18.279Z,98429.41
2022-12-08T06:02:45.288Z,98430.34
2022-12-08T06:05:12.286Z,98430.19
2022-12-08T06:07:39.612Z,98434.38
2022-12-08T06:10:09.124Z,98433.97
2022-12-08T06:12:36.136Z,98431.97
2022-12-08T06:15:03.163Z,98439.66
2022-12-08T06:17:30.033Z,98437.63
2022-12-08T06:19:56.953Z,98437.25
2022-12-08T06:22:23.858Z,98434.41
2022-12-08T06:24:50.696Z,98433.19
2022-12-08T06:27:18.960Z,98438.44
2022-12-08T06:29:45.857Z,98435.59
2022-12-08T06:32:12.799Z,98438.69
2022-12-08T06:34:39.742Z,98433.63
2022-12-08T06:37:06.644Z,98429.13
2022-12-08T06:39:33.533Z,98430.78
2022-12-08T06:42:19.464Z,98430.53
2022-12-08T06:44:48.151Z,98424.88
2022-12-08T06:47:15.034Z,98423.00
2022-12-08T06:49:41.934Z,98426.00
2022-12-08T06:52:08.859Z,98417.91
2022-12-08T06:54:35.716Z,98416.88
2022-12-08T06:57:02.584Z,98425.75
2022-12-08T06:59:29.457Z,98420.38
2022-12-08T07:01:57.714Z,98422.81
2022-12-08T07:04:24.647Z,98425.03
2022-12-08T07:06:51.534Z,98421.84
2022-12-08T07:09:18.524Z,98417.59
2022-12-08T07:11:45.382Z,98424.63
2022-12-08T07:14:12.896Z,98427.06
2022-12-08T07:16:39.803Z,98423.06
2022-12-08T07:19:08.123Z,98419.03
2022-12-08T07:21:35.021Z,98423.94
2022-12-08T07:24:02.674Z,98428.63
2022-12-08T07:26:29.589Z,98429.19
2022-12-08T07:28:56.563Z,98419.53
2022-12-08T07:31:25.263Z,98420.94
2022-12-08T07:33:52.827Z,98433.09
2022-12-08T07:36:21.635Z,98425.31
2022-12-08T07:38:49.488Z,98426.72
2022-12-08T07:41:18.540Z,98424.56
2022-12-08T07:43:46.004Z,98426.19
2022-12-08T07:46:13.627Z,98421.94
2022-12-08T07:48:40.814Z,98422.78
2022-12-08T07:51:08.422Z,98428.72
2022-12-08T07:53:36.799Z,98421.19
2022-12-08T07:56:06.654Z,98418.50
2022-12-08T07:58:33.752Z,98413.09
2022-12-08T08:01:00.924Z,98416.09
2022-12-08T08:03:27.938Z,98409.38
2022-12-08T08:05:54.840Z,98408.34
2022-12-08T08:08:21.901Z,98409.16
2022-12-08T08:10:50.109Z,98409.38
2022-12-08T08:13:17.646Z,98408.34
2022-12-08T08:15:44.587Z,98408.06
2022-12-08T08:18:11.715Z,98412.66
2022-12-08T08:20:38.669Z,98408.34
2022-12-08T08:23:05.599Z,98412.66
2022-12-08T08:25:32.438Z,98411.84
2022-12-08T08:28:00.729Z,98408.34
2022-12-08T08:30:27.633Z,98408.06
2022-12-08T08:32:54.480Z,98409.97
2022-12-08T08:35:21.340Z,98413.75
2022-12-08T08:37:49.354Z,98408.34
2022-12-08T08:40:16.896Z,98409.16
2022-12-08T08:42:43.767Z,98411.28
2022-12-08T08:45:12.304Z,98396.97
2022-12-08T08:47:39.238Z,98407.75
2022-12-08T08:50:08.032Z,98394.28
2022-12-08T08:52:35.354Z,98386.41
2022-12-08T08:55:04.137Z,98389.94
2022-12-08T08:57:31.071Z,98394.75
2022-12-08T08:59:57.979Z,98403.44
2022-12-08T09:02:26.192Z,98401.00
2022-12-08T09:04:53.330Z,98401.00
2022-12-08T09:07:20.304Z,98401.25
2022-12-08T09:09:47.174Z,98396.41
2022-12-08T09:12:14.189Z,98395.84
2022-12-08T09:14:41.342Z,98396.66
2022-12-08T09:17:08.908Z,98399.84
2022-12-08T09:19:37.514Z,98396.09
2022-12-08T09:22:05.462Z,98396.91
2022-12-08T09:24:32.434Z,98396.09
2022-12-08T09:26:59.499Z,98389.38
2022-12-08T09:29:31.037Z,98387.75
2022-12-08T09:32:01.052Z,98390.44
2022-12-08T09:34:28.023Z,98387.19
2022-12-08T09:36:56.281Z,98386.13
2022-12-08T09:39:23.163Z,98384.25
2022-12-08T09:41:53.973Z,98395.03
2022-12-08T09:44:40.512Z,98399.03
2022-12-08T09:47:17.751Z,98394.22
2022-12-08T09:49:50.034Z,98384.50
2022-12-08T09:52:25.103Z,98381.78
2022-12-08T09:54:52.517Z,98383.41
2022-12-08T09:57:22.667Z,98378.28
2022-12-08T09:59:55.819Z,98376.66
2022-12-08T10:02:24.791Z,98365.84
2022-12-08T10:04:54.309Z,98369.34
2022-12-08T10:07:32.346Z,98361.25
2022-12-08T10:10:04.157Z,98357.75
2022-12-08T10:12:38.017Z,98355.31
2022-12-08T10:15:20.285Z,98364.22
2022-12-08T10:17:49.515Z,98359.06
2022-12-08T10:20:19.148Z,98353.69
2022-12-08T10:22:53.252Z,98347.69
2022-12-08T10:25:25.959Z,98347.69
2022-12-08T10:27:54.830Z,98348.78
2022-12-08T10:30:22.626Z,98341.75
2022-12-08T10:32:51.067Z,98339.84
2022-12-08T10:35:20.268Z,98342.78
2022-12-08T10:37:57.869Z,98339.84
2022-12-08T10:40:27.577Z,98336.34
2022-12-08T10:42:59.752Z,98328.25
2022-12-08T10:45:29.284Z,98324.19
2022-12-08T10:48:00.036Z,98330.97
2022-12-08T10:50:35.458Z,98328.50
2022-12-08T10:53:15.627Z,98325.00
2022-12-08T10:55:45.312Z,98312.81
2022-12-08T10:58:30.520Z,98311.50
2022-12-08T11:01:01.823Z,98306.09
2022-12-08T11:03:31.274Z,98304.72
2022-12-08T11:06:05.393Z,98299.06
2022-12-08T11:08:47.135Z,98293.94
2022-12-08T11:11:14.269Z,98290.69
2022-12-08T11:13:42.155Z,98282.59
2022-12-08T11:16:13.651Z,98281.75
2022-12-08T11:18:42.786Z,98281.75
2022-12-08T11:21:13.126Z,98276.38
2022-12-08T11:23:43.490Z,98268.81
2022-12-08T11:26:20.719Z,98278.00
2022-12-08T11:28:47.648Z,98263.69
2022-12-08T11:31:26.015Z,98269.91
2022-12-08T11:33:53.081Z,98254.78
2022-12-08T11:36:23.758Z,98258.31
2022-12-08T11:38:56.217Z,98252.09
2022-12-08T11:41:27.234Z,98252.91
2022-12-08T11:44:02.333Z,98241.03
2022-12-08T11:46:35.786Z,98244.03
2022-12-08T11:49:07.231Z,98249.69
2022-12-08T11:51:38.055Z,98244.53
2022-12-08T11:54:22.650Z,98234.56
2022-12-08T11:56:52.625Z,98232.94
2022-12-08T11:59:26.447Z,98232.94
2022-12-08T12:01:53.721Z,98230.50
2022-12-08T12:04:26.483Z,98227.81
2022-12-08T12:07:24.562Z,98226.97
2022-12-08T12:10:09.748Z,98226.72
2022-12-08T12:12:55.792Z,98228.09
2022-12-08T12:15:39.862Z,98220.25
2022-12-08T12:18:16.742Z,98222.94
2022-12-08T12:20:51.699Z,98221.34
2022-12-08T12:23:23.330Z,98215.94
2022-12-08T12:25:56.732Z,98207.03
2022-12-08T12:28:26.528Z,98213.47
2022-12-08T12:30:59.038Z,98206.47
2022-12-08T12:33:26.965Z,98201.91
2022-12-08T12:35:57.052Z,98201.66
2022-12-08T12:38:45.870Z,98202.44
2022-12-08T12:41:16.939Z,98201.06
2022-12-08T12:44:09.211Z,98195.44
2022-12-08T12:46:55.295Z,98200.25
2022-12-08T12:50:13.818Z,98198.13
2022-12-08T12:52:50.502Z,98202.16
2022-12-08T12:55:49.786Z,98195.94
2022-12-08T12:58:41.044Z,98195.94
2022-12-08T13:01:36.684Z,98198.63
2022-12-08T13:04:07.455Z,98196.19
2022-12-08T13:06:39.420Z,98191.59
2022-12-08T13:09:07.336Z,98194.06
2022-12-08T13:11:48.490Z,98187.84
2022-12-08T13:14:33.989Z,98191.09
2022-12-08T13:17:04.280Z,98187.59
2022-12-08T13:19:33.102Z,98189.44
2022-12-08T13:22:00.934Z,98192.72
2022-12-08T13:24:32.544Z,98191.09
2022-12-08T13:27:34.115Z,98187.34
2022-12-08T13:30:34.175Z,98183.25
2022-12-08T13:33:17.810Z,98185.97
2022-12-08T13:35:50.454Z,98177.03
2022-12-08T13:38:21.229Z,98166.25
2022-12-08T13:40:50.469Z,98167.88
2022-12-08T13:43:44.821Z,98162.47
2022-12-08T13:58:02.833Z,98158.16
2022-12-08T14:00:29.789Z,98162.47
2022-12-08T14:02:58.613Z,98161.69
2022-12-08T14:06:10.613Z,98161.69
2022-12-08T14:08:58.964Z,98165.19
2022-12-08T14:11:33.697Z,98162.75
2022-12-08T14:14:03.472Z,98165.47
2022-12-08T14:16:36.461Z,98161.69
2022-12-08T14:19:22.390Z,98163.00
2022-12-08T14:21:57.028Z,98166.75
2022-12-08T14:24:24.869Z,98165.13
2022-12-08T14:26:54.415Z,98168.66
2022-12-08T14:29:43.766Z,98169.19
2022-12-08T14:32:26.608Z,98169.44
2022-12-08T14:34:55.935Z,98163.50
2022-12-08T14:37:26.341Z,98167.03
2022-12-08T14:39:57.161Z,98163.75
2022-12-08T14:42:26.452Z,98163.50
2022-12-08T14:45:00.665Z,98162.69
2022-12-08T14:47:32.551Z,98164.34
2022-12-08T14:50:00.174Z,98163.50
2022-12-08T14:52:29.403Z,98158.94
2022-12-08T14:54:58.198Z,98151.91
2022-12-08T14:57:33.665Z,98150.28
2022-12-08T15:00:09.193Z,98150.28
2022-12-08T15:02:44.726Z,98149.44
2022-12-08T15:05:14.885Z,98142.19
2022-12-08T15:07:49.016Z,98130.31
2022-12-08T15:10:27.655Z,98136.53
2022-12-08T15:13:04.883Z,98139.47
2022-12-08T15:15:45.886Z,98139.47
2022-12-08T15:18:17.607Z,98135.72
2022-12-08T15:20:47.276Z,98137.59
2022-12-08T15:23:26.214Z,98143.00
2022-12-08T15:25:54.011Z,98140.31
2022-12-08T15:28:26.678Z,98148.41
2022-12-08T15:30:57.277Z,98140.31
2022-12-08T15:33:24.546Z,98144.88
2022-12-08T15:35:51.845Z,98135.97
2022-12-08T15:38:23.537Z,98134.91
2022-12-08T15:40:50.683Z,98126.00
2022-12-08T15:43:17.799Z,98126.81
2022-12-08T15:45:57.904Z,98125.75
2022-12-08T15:48:27.179Z,98130.31
2022-12-08T15:50:55.458Z,98126.25
2022-12-08T15:53:23.730Z,98115.47
2022-12-08T15:56:25.798Z,98123.53
2022-12-08T15:58:53.499Z,98120.59
2022-12-08T16:01:20.845Z,98112.50
2022-12-08T16:09:29.925Z,98107.94
2022-12-08T16:12:15.580Z,98109.81
2022-12-08T16:17:31.658Z,98105.00
2022-12-08T16:19:59.308Z,98104.16
2022-12-08T16:25:19.950Z,98098.78
2022-12-08T16:30:36.388Z,98095.81
2022-12-08T16:33:03.383Z,98089.59
2022-12-08T16:35:30.550Z,98096.63
2022-12-08T16:37:58.125Z,98092.28
2022-12-08T16:40:26.457Z,98085.28
2022-12-08T16:42:53.554Z,98090.41
2022-12-08T16:45:22.634Z,98090.97
2022-12-08T16:47:51.451Z,98089.91
2022-12-08T16:50:20.956Z,98082.31
2022-12-08T16:52:48.445Z,98083.41
2022-12-08T16:55:17.370Z,98085.81
2022-12-08T16:57:47.293Z,98086.94
2022-12-08T17:00:16.946Z,98092.91
2022-12-08T17:02:45.220Z,98092.91
2022-12-08T17:05:15.036Z,98091.81
2022-12-08T17:07:42.633Z,98089.69
2022-12-08T17:10:12.084Z,98089.16
2022-12-08T17:12:39.324Z,98094.31
2022-12-08T17:15:10.275Z,98092.19
2022-12-08T17:17:37.544Z,98096.50
2022-12-08T17:20:07.337Z,98094.09
2022-12-08T17:22:35.603Z,98087.88
2022-12-08T17:25:02.826Z,98087.63
2022-12-08T17:27:30.021Z,98088.19
2022-12-08T17:29:57.405Z,98089.25
2022-12-08T17:32:26.086Z,98089.81
2022-12-08T17:34:53.478Z,98093.06
2022-12-08T17:37:20.450Z,98101.16
2022-12-08T17:39:47.333Z,98098.22
2022-12-08T17:42:14.412Z,98093.59
2022-12-08T17:44:41.297Z,98090.66
2022-12-08T17:47:08.216Z,98087.69
2022-12-08T17:49:36.532Z,98083.13
2022-12-08T17:52:06.725Z,98082.06
2022-12-08T17:54:33.926Z,98087.44
2022-12-08T17:57:00.882Z,98087.97
2022-12-08T17:59:28.998Z,98090.44
2022-12-08T18:01:57.351Z,98090.44
2022-12-08T18:04:25.443Z,98094.50
2022-12-08T18:06:54.914Z,98096.16
2022-12-08T18:09:21.860Z,98098.03
2022-12-08T18:11:48.922Z,98096.94
2022-12-08T18:14:16.534Z,98099.38
2022-12-08T18:16:45.919Z,98101.81
2022-12-08T18:19:14.173Z,98107.22
2022-12-08T18:21:41.584Z,98105.09
2022-12-08T18:24:17.765Z,98098.88
2022-12-08T18:26:44.745Z,98097.78
2022-12-08T18:29:11.610Z,98097.53
2022-12-08T18:31:38.592Z,98093.75
2022-12-08T18:34:05.465Z,98093.75
2022-12-08T18:36:32.393Z,98084.03
2022-12-08T18:38:59.255Z,98091.06
2022-12-08T18:41:28.353Z,98083.78
2022-12-08T18:43:55.693Z,98073.50
2022-12-08T18:46:23.630Z,98087.81
2022-12-08T18:48:51.684Z,98069.72
2022-12-08T18:51:20.419Z,98078.09
2022-12-08T18:53:47.963Z,98071.63
2022-12-08T18:56:23.285Z,98072.69
2022-12-08T18:58:51.634Z,98068.34
2022-12-08T19:01:18.668Z,98067.25
2022-12-08T19:04:04.639Z,98066.72
2022-12-08T19:06:32.749Z,98058.03
2022-12-08T19:08:59.597Z,98058.88
2022-12-08T19:11:28.070Z,98052.09
2022-12-08T19:13:56.392Z,98054.81
2022-12-08T19:16:23.499Z,98048.84
2022-12-08T19:18:50.948Z,98053.44
2022-12-08T19:21:17.970Z,98048.28
2022-12-08T19:23:44.933Z,98057.19
2022-12-08T19:26:12.297Z,98046.69
2022-12-08T19:28:41.109Z,98053.69
2022-12-08T19:31:10.246Z,98048.28
2022-12-08T19:33:37.686Z,98055.28
2022-12-08T19:36:06.466Z,98043.91
2022-12-08T19:38:53.503Z,98036.94
2022-12-08T19:41:38.978Z,98038.03
2022-12-08T19:44:24.759Z,98036.41
2022-12-08T19:46:53.184Z,98033.72
2022-12-08T19:49:20.191Z,98035.34
2022-12-08T19:51:47.118Z,98033.22
2022-12-08T19:54:13.983Z,98041.31
2022-12-08T19:56:40.860Z,98029.44
2022-12-08T19:59:07.999Z,98040.22
2022-12-08T20:01:35.048Z,98036.16
2022-12-08T20:04:03.655Z,98035.34
2022-12-08T20:06:30.986Z,98033.97
2022-12-08T20:08:57.945Z,98034.81
2022-12-08T20:11:24.802Z,98030.19
2022-12-08T20:13:51.726Z,98037.50
2022-12-08T20:16:18.725Z,98037.50
2022-12-08T20:18:47.798Z,98045.59
2022-12-08T20:21:16.426Z,98038.00
2022-12-08T20:23:45.560Z,98034.53
2022-12-08T20:26:13.285Z,98034.78
2022-12-08T20:28:40.224Z,98034.78
2022-12-08T20:31:07.264Z,98030.44
2022-12-08T20:33:34.305Z,98034.78
2022-12-08T20:36:03.466Z,98043.41
2022-12-08T20:38:31.763Z,98034.78
2022-12-08T20:40:59.374Z,98035.56
2022-12-08T20:43:26.755Z,98036.91
2022-12-08T20:45:53.635Z,98049.59
2022-12-08T20:48:20.729Z,98039.31
2022-12-08T20:50:50.549Z,98036.88
2022-12-08T20:53:17.609Z,98041.16
2022-12-08T20:55:46.006Z,98035.47
2022-12-08T20:58:13.190Z,98041.94
2022-12-08T21:00:40.208Z,98038.94
2022-12-08T21:03:07.221Z,98044.59
2022-12-08T21:05:36.278Z,98034.31
2022-12-08T21:08:03.449Z,98041.03
2022-12-08T21:10:30.369Z,98036.16
2022-12-08T21:12:58.674Z,98037.75
2022-12-08T21:15:26.836Z,98046.88
2022-12-08T21:17:55.019Z,98049.28
2022-12-08T21:20:22.571Z,98044.66
2022-12-08T21:22:49.705Z,98047.31
2022-12-08T21:25:17.111Z,98047.03
2022-12-08T21:27:44.060Z,98043.50
2022-12-08T21:30:13.900Z,98034.84
2022-12-08T21:32:40.903Z,98035.38
2022-12-08T21:35:08.976Z,98035.31
2022-12-08T21:37:36.085Z,98032.06
2022-12-08T21:40:04.053Z,98020.72
2022-12-08T21:42:43.819Z,98029.88
2022-12-08T21:45:14.526Z,98020.16
2022-12-08T21:47:41.726Z,98018.53
2022-12-08T21:50:10.411Z,98024.69
2022-12-08T21:52:38.572Z,98016.06
2022-12-08T21:55:07.164Z,98017.38
2022-12-08T21:57:34.584Z,98013.03
2022-12-08T22:00:01.771Z,98016.31
2022-12-08T22:02:32.698Z,98012.53
2022-12-08T22:04:59.894Z,98012.78
2022-12-08T22:07:26.918Z,98004.16
2022-12-08T22:09:53.862Z,98008.19
2022-12-08T22:12:21.223Z,98009.75
2022-12-08T22:14:51.009Z,98008.63
2022-12-08T22:17:18.717Z,98003.75
2022-12-08T22:19:47.254Z,98008.56
2022-12-08T22:22:14.430Z,98006.94
2022-12-08T22:24:41.391Z,97998.31
2022-12-08T22:27:08.305Z,98002.06
2022-12-08T22:29:35.295Z,97996.91
2022-12-08T22:32:02.384Z,97999.03
2022-12-08T22:34:29.552Z,97996.59
2022-12-08T22:36:57.913Z,97991.44
2022-12-08T22:39:24.887Z,97983.06
2022-12-08T22:41:52.603Z,97987.38
2022-12-08T22:44:19.626Z,97980.63
2022-12-08T22:46:46.702Z,97978.75
2022-12-08T22:49:13.709Z,97982.75
2022-12-08T22:51:40.728Z,97984.91
2022-12-08T22:54:10.055Z,97985.72
2022-12-08T22:56:37.179Z,97987.84
2022-12-08T22:59:04.486Z,97983.53
2022-12-08T23:01:33.212Z,97982.94
2022-12-08T23:04:00.872Z,97976.78
2022-12-08T23:06:29.772Z,97978.09
2022-12-08T23:08:57.875Z,97973.75
2022-12-08T23:11:29.710Z,97965.91
2022-12-08T23:13:59.872Z,97968.06
2022-12-08T23:16:27.446Z,97962.94
2022-12-08T23:18:55.011Z,97971.00
2022-12-08T23:21:22.376Z,97965.88
2022-12-08T23:23:49.537Z,97965.88
2022-12-08T23:26:19.026Z,97965.31
2022-12-08T23:28:47.541Z,97965.56
2022-12-08T23:31:15.444Z,97964.75
2022-12-08T23:33:42.716Z,97969.34
2022-12-08T23:36:10.721Z,97962.31
2022-12-08T23:38:38.118Z,97959.06
2022-12-08T23:41:07.773Z,97955.31
2022-12-08T23:43:35.595Z,97956.38
2022-12-08T23:46:04.406Z,97959.06
2022-12-08T23:48:34.633Z,97952.84
2022-12-08T23:51:02.218Z,97951.25
2022-12-08T23:53:29.465Z,97952.31
2022-12-08T23:55:59.754Z,97941.78
2022-12-08T23:58:26.967Z,97945.56
